Sanko Dynasty — V7EZ5 — position and weather

sailwx.info

Track history (hours):
 
Tides and Currents Weather Stations Pressure Air Temp Water Temp Dewpoint Dewpoint Depression Visibility Wind Speed Wind Dir Waves Ship Positions

Sanko Dynasty

Last reported at 2018-Apr-16 03:14 UTC. Time now 2018-May-24 07:44 UTC.
Position N 00°03' W 047°23'.
Warning: this ship's position is 38 days out of date.

Length 240 m; draft 1.04 m.

Type: Tanker. MMSI: 538001883.

Date/timePositionNaut miles runAvg speedWind from/ knotsBaromVisibWave heightAir tempDewpointWater temp
2018-Apr-16 03:14N 00°03' W 047°23'410.9
2018-Apr-16 02:50N 00°02' W 047°26'411.2
2018-Apr-16 02:30S 00°00' W 047°30'611.3
2018-Apr-16 02:00S 00°03' W 047°35'610.5
2018-Apr-16 01:24S 00°05' W 047°41'4 9.6
2018-Apr-16 01:00S 00°07' W 047°44'6 9.0
2018-Apr-16 00:19S 00°12' W 047°48'3 8.7
2018-Apr-15 23:57S 00°13' W 047°51'3 7.4
2018-Apr-15 23:30S 00°15' W 047°54'4 7.3
2018-Apr-15 23:01S 00°17' W 047°57'2 3.3
2018-Apr-15 22:30S 00°18' W 047°58'2 4.4
2018-Apr-15 21:59S 00°19' W 048°00'3 6.2
2018-Apr-15 21:30S 00°20' W 048°03'3 6.9
2018-Apr-15 21:00S 00°21' W 048°06'4 7.2
2018-Apr-15 20:30S 00°23' W 048°09'44 7.7
2018-Apr-15 14:47S 01°03' W 048°28'2 7.4
2018-Apr-15 14:28S 01°05' W 048°30'3 7.2
2018-Apr-15 14:00S 01°07' W 048°32'3 6.3
2018-Apr-15 13:29S 01°10' W 048°33'2 4.2
2018-Apr-15 13:00S 01°12' W 048°34'3 5.6
2018-Apr-15 12:30S 01°14' W 048°35'3 6.6
2018-Apr-15 12:00S 01°17' W 048°37'4 8.3
2018-Apr-15 11:30S 01°20' W 048°40'4 8.7
2018-Apr-15 11:00S 01°24' W 048°42'5 9.6
2018-Apr-15 10:30S 01°29' W 048°43'1 2.4
2018-Apr-15 10:01S 01°30' W 048°44'0 0.0
2018-Apr-15 09:30S 01°30' W 048°44'0 0.0
2018-Apr-15 09:00S 01°30' W 048°44'0 0.0
2018-Apr-15 08:24S 01°30' W 048°44'0 0.0
2018-Apr-15 08:00S 01°30' W 048°44'0 0.0
2018-Apr-15 07:19S 01°30' W 048°44'0 0.0
2018-Apr-15 06:18S 01°30' W 048°44'0 0.0
2018-Apr-15 02:33S 01°30' W 048°44'0 0.0
2018-Apr-15 02:21S 01°30' W 048°44'0 0.0
2018-Apr-15 01:57S 01°30' W 048°44'0 0.0
2018-Apr-15 01:28S 01°30' W 048°44'0 0.0
2018-Apr-15 00:57S 01°30' W 048°44'0 0.0
2018-Apr-15 00:28S 01°30' W 048°44'0 0.0
2018-Apr-14 23:57S 01°30' W 048°44'0 0.0
2018-Apr-14 23:27S 01°30' W 048°44'0 0.0
2018-Apr-14 22:57S 01°30' W 048°44'0 0.0
2018-Apr-14 22:27S 01°30' W 048°44'0 0.0
2018-Apr-14 22:00S 01°30' W 048°44'0 0.0
2018-Apr-14 21:30S 01°30' W 048°44'0 0.0
2018-Apr-14 20:57S 01°30' W 048°44'0 0.0
2018-Apr-14 01:03S 01°30' W 048°44'0 0.0
2018-Apr-14 01:00S 01°30' W 048°44'0 0.0
2018-Apr-14 00:30S 01°30' W 048°44'0 0.0
2018-Apr-13 23:57S 01°30' W 048°44'0 0.0
2018-Apr-13 23:27S 01°30' W 048°44'0 0.0
2018-Apr-13 23:00S 01°30' W 048°44'0 0.0
2018-Apr-13 22:27S 01°30' W 048°44'0 0.0
2018-Apr-13 22:00S 01°30' W 048°44'0 0.0
2018-Apr-13 21:27S 01°30' W 048°44'0 0.0
2018-Apr-13 20:57S 01°30' W 048°44'0 0.0
2018-Apr-13 20:27S 01°30' W 048°44'0 0.0
2018-Apr-13 19:57S 01°30' W 048°44'0 0.0
2018-Apr-13 19:27S 01°30' W 048°44'0 0.0
2018-Apr-13 18:57S 01°30' W 048°44'0 0.0
2018-Apr-13 18:27S 01°30' W 048°44'0 0.0
2018-Apr-13 17:57S 01°30' W 048°44'0 0.0
2018-Apr-13 17:27S 01°30' W 048°44'0 0.0
2018-Apr-13 16:57S 01°30' W 048°44'0 0.0
2018-Apr-13 16:21S 01°30' W 048°44'0 0.0
2018-Apr-13 15:57S 01°30' W 048°44'0 0.0
2018-Apr-13 15:27S 01°30' W 048°44'0 0.0
2018-Apr-13 15:00S 01°30' W 048°44'0 0.0
2018-Apr-13 14:27S 01°30' W 048°44'0 0.0
2018-Apr-13 13:57S 01°30' W 048°44'0 0.0
2018-Apr-13 13:27S 01°30' W 048°44'0 0.0
2018-Apr-13 12:57S 01°30' W 048°44'0 0.0
2018-Apr-13 12:27S 01°30' W 048°44'0 0.0
2018-Apr-13 11:57S 01°30' W 048°44'0 0.0
2018-Apr-13 11:27S 01°30' W 048°44'0 0.0
2018-Apr-13 10:57S 01°30' W 048°44'0 0.0
2018-Apr-13 10:27S 01°30' W 048°44'0 0.0
2018-Apr-13 09:57S 01°30' W 048°44'0 0.0
2018-Apr-13 09:27S 01°30' W 048°44'0 0.0
2018-Apr-13 08:57S 01°30' W 048°44'0 0.0
2018-Apr-13 08:27S 01°30' W 048°44'0 0.0
2018-Apr-13 08:00S 01°30' W 048°44'0 0.0
2018-Apr-13 07:28S 01°30' W 048°44'0 0.0
2018-Apr-13 06:57S 01°30' W 048°44'0 0.0
2018-Apr-13 06:27S 01°30' W 048°44'0 0.0
2018-Apr-13 05:57S 01°30' W 048°44'0 0.0
2018-Apr-13 05:27S 01°30' W 048°44'0 0.0
2018-Apr-13 04:57S 01°30' W 048°44'0 0.0
2018-Apr-13 04:30S 01°30' W 048°44'0 0.0
2018-Apr-13 04:00S 01°30' W 048°44'0 0.0
2018-Apr-13 03:30S 01°30' W 048°44'0 0.0
2018-Apr-13 02:57S 01°30' W 048°44'0 0.0
2018-Apr-13 02:27S 01°30' W 048°44'0 0.0
2018-Apr-13 01:57S 01°30' W 048°44'0 0.0
2018-Apr-13 01:27S 01°30' W 048°44'0 0.0
2018-Apr-13 01:00S 01°30' W 048°44'0 0.0
2018-Apr-13 00:30S 01°30' W 048°44'0 0.0
2018-Apr-12 23:57S 01°30' W 048°44'0 0.0
2018-Apr-12 23:30S 01°30' W 048°44'0 0.0
2018-Apr-12 23:00S 01°30' W 048°44'0 0.0
2018-Apr-12 22:30S 01°30' W 048°44'0 0.0
2018-Apr-12 21:57S 01°30' W 048°44'0 0.0
2018-Apr-12 21:27S 01°30' W 048°44'0 0.0
2018-Apr-12 20:57S 01°30' W 048°44'0 0.0
2018-Apr-12 11:57S 01°30' W 048°44'0 0.0
2018-Apr-12 11:21S 01°30' W 048°44'0 0.0
2018-Apr-12 10:57S 01°30' W 048°44'0 0.0
2018-Apr-12 10:27S 01°30' W 048°44'0 0.0
2018-Apr-12 09:58S 01°30' W 048°44'0 0.0
2018-Apr-12 09:27S 01°30' W 048°44'0 0.0
2018-Apr-12 08:59S 01°30' W 048°44'0 0.0
2018-Apr-12 08:30S 01°30' W 048°44'0 0.0
2018-Apr-12 08:01S 01°30' W 048°44'0 0.0
2018-Apr-12 07:29S 01°30' W 048°44'0 0.0
2018-Apr-12 06:59S 01°30' W 048°44'0 0.0
2018-Apr-12 06:29S 01°30' W 048°44'0 0.0
2018-Apr-12 05:57S 01°30' W 048°44'0 0.0
2018-Apr-12 05:27S 01°30' W 048°44'0 0.0
2018-Apr-12 04:57S 01°30' W 048°44'0 0.0
2018-Apr-12 04:27S 01°30' W 048°44'0 0.0
2018-Apr-12 03:57S 01°30' W 048°44'0 0.0
2018-Apr-12 03:27S 01°30' W 048°44'0 0.0
2018-Apr-12 02:57S 01°30' W 048°44'0 0.0
2018-Apr-12 02:27S 01°30' W 048°44'0 0.0
2018-Apr-12 01:57S 01°30' W 048°44'0 0.0
2018-Apr-12 01:27S 01°30' W 048°44'0 0.0
2018-Apr-12 00:57S 01°30' W 048°44'0 0.0
2018-Apr-12 00:27S 01°30' W 048°44'0 0.0
2018-Apr-11 23:57S 01°30' W 048°44'0 0.0
2018-Apr-11 23:27S 01°30' W 048°44'0 0.0
2018-Apr-11 22:51S 01°30' W 048°44'0 0.0
2018-Apr-11 22:27S 01°30' W 048°44'0 0.0
2018-Apr-11 21:57S 01°30' W 048°44'0 0.0
2018-Apr-11 21:27S 01°30' W 048°44'0 0.0
2018-Apr-11 20:57S 01°30' W 048°44'0 0.0
2018-Apr-11 20:27S 01°30' W 048°44'0 0.0
2018-Apr-11 19:57S 01°30' W 048°44'0 0.0
2018-Apr-11 19:27S 01°30' W 048°44'0 0.0
2018-Apr-11 18:57S 01°30' W 048°44'0 0.0
2018-Apr-11 18:30S 01°30' W 048°44'0 0.0
2018-Apr-11 18:00S 01°30' W 048°44'0 0.0
2018-Apr-11 17:30S 01°30' W 048°44'0 0.0
2018-Apr-11 17:00S 01°30' W 048°44'0 0.0
2018-Apr-11 16:30S 01°30' W 048°44'0 0.0
2018-Apr-11 15:54S 01°30' W 048°44'0 0.0
2018-Apr-11 15:30S 01°30' W 048°44'0 0.0
2018-Apr-11 15:00S 01°30' W 048°44'0 0.0
2018-Apr-11 14:30S 01°30' W 048°44'0 0.0
2018-Apr-11 14:00S 01°30' W 048°44'0 0.0
2018-Apr-11 13:30S 01°30' W 048°44'0 0.0
2018-Apr-11 13:00S 01°30' W 048°44'0 0.0
2018-Apr-11 12:30S 01°30' W 048°44'0 0.0
2018-Apr-11 12:00S 01°30' W 048°44'0 0.0
2018-Apr-11 11:24S 01°30' W 048°44'0 0.0
2018-Apr-11 11:00S 01°30' W 048°44'0 0.0
2018-Apr-11 10:30S 01°30' W 048°44'0 0.0
2018-Apr-11 10:00S 01°30' W 048°44'0 0.0
2018-Apr-11 09:18S 01°30' W 048°44'0 0.0
2018-Apr-11 09:00S 01°30' W 048°44'0 0.0
2018-Apr-11 08:30S 01°30' W 048°44'0 0.0
2018-Apr-11 08:00S 01°30' W 048°44'0 0.0
2018-Apr-11 07:27S 01°30' W 048°44'0 0.0
2018-Apr-11 06:57S 01°30' W 048°44'0 0.0
2018-Apr-11 06:21S 01°30' W 048°44'0 0.0
2018-Apr-11 05:58S 01°30' W 048°44'0 0.0
2018-Apr-11 05:15S 01°30' W 048°44'0 0.0
2018-Apr-11 04:57S 01°30' W 048°44'0 0.0
2018-Apr-11 04:28S 01°30' W 048°44'0 0.0
2018-Apr-11 03:57S 01°30' W 048°44'0 0.0
2018-Apr-11 03:27S 01°30' W 048°44'0 0.0
2018-Apr-11 03:00S 01°30' W 048°44'0 0.0
2018-Apr-11 02:30S 01°30' W 048°44'0 0.0
2018-Apr-11 02:00S 01°30' W 048°44'0 0.0
2018-Apr-11 01:30S 01°30' W 048°44'0 0.0
2018-Apr-11 01:00S 01°30' W 048°44'0 0.0
2018-Apr-11 00:30S 01°30' W 048°44'0 0.0
2018-Apr-11 00:00S 01°30' W 048°44'0 0.0
2018-Apr-10 23:30S 01°30' W 048°44'0 0.0
2018-Apr-10 23:00S 01°30' W 048°44'0 0.0
2018-Apr-10 22:30S 01°30' W 048°44'0 0.0
2018-Apr-10 22:00S 01°30' W 048°44'0 0.0
2018-Apr-10 21:30S 01°30' W 048°44'0 0.0
2018-Apr-10 21:00S 01°30' W 048°44'0 0.0
2018-Apr-10 20:30S 01°30' W 048°44'0 0.5
2018-Apr-10 20:00S 01°30' W 048°44'2 3.7
2018-Apr-10 19:30S 01°28' W 048°44'510.3
2018-Apr-10 19:00S 01°23' W 048°42'510.2
2018-Apr-10 18:30S 01°19' W 048°39'5 9.8
2018-Apr-10 18:00S 01°15' W 048°36'5 9.1
2018-Apr-10 17:30S 01°11' W 048°33'3 6.3
2018-Apr-10 17:00S 01°09' W 048°31'2 4.6
2018-Apr-10 16:30S 01°07' W 048°30'1 1.7
2018-Apr-10 16:00S 01°06' W 048°29'0 0.0
2018-Apr-10 15:27S 01°06' W 048°29'0 0.1
2018-Apr-10 15:00S 01°06' W 048°29'0 0.1
2018-Apr-10 14:30S 01°06' W 048°29'0 0.2
2018-Apr-10 14:00S 01°06' W 048°29'0 0.2
2018-Apr-10 13:30S 01°06' W 048°30'0 0.3
2018-Apr-10 13:00S 01°06' W 048°30'0 0.1
2018-Apr-10 12:30S 01°06' W 048°30'0 0.1
2018-Apr-10 12:00S 01°06' W 048°30'0 0.1
2018-Apr-10 11:30S 01°06' W 048°30'0 0.0
2018-Apr-10 10:59S 01°06' W 048°30'0 0.0
2018-Apr-10 10:30S 01°06' W 048°30'0 0.0
2018-Apr-10 10:01S 01°06' W 048°30'0 0.0
2018-Apr-10 09:30S 01°06' W 048°30'0 0.1
2018-Apr-10 09:00S 01°06' W 048°30'0 0.0
2018-Apr-10 08:30S 01°06' W 048°30'0 0.1
2018-Apr-10 08:00S 01°06' W 048°30'0 0.1
2018-Apr-10 07:30S 01°06' W 048°30'0 0.0
2018-Apr-10 07:00S 01°06' W 048°30'0 0.2
2018-Apr-10 06:31S 01°06' W 048°30'0 0.2
2018-Apr-10 06:01S 01°06' W 048°29'0 0.0
2018-Apr-10 05:31S 01°06' W 048°29'0 0.0
2018-Apr-10 05:01S 01°06' W 048°29'0 0.0
2018-Apr-10 04:30S 01°06' W 048°29'0 0.0
2018-Apr-10 04:00S 01°06' W 048°29'0 0.0
2018-Apr-10 03:30S 01°06' W 048°29'0 0.0
2018-Apr-10 03:00S 01°06' W 048°29'0 0.0
2018-Apr-10 02:30S 01°06' W 048°29'0 0.0
2018-Apr-10 01:58S 01°06' W 048°29'0 0.0
2018-Apr-10 01:30S 01°06' W 048°29'0 0.1
2018-Apr-10 00:59S 01°06' W 048°29'0 0.0
2018-Apr-10 00:29S 01°06' W 048°30'0 0.2
2018-Apr-10 00:00S 01°06' W 048°30'0 0.2
2018-Apr-09 23:30S 01°06' W 048°30'0 0.2
2018-Apr-09 23:00S 01°06' W 048°30'0 0.0
2018-Apr-09 22:30S 01°06' W 048°30'0 0.0
2018-Apr-09 22:00S 01°06' W 048°30'0 0.1
2018-Apr-09 21:30S 01°06' W 048°30'0 0.0
2018-Apr-09 20:59S 01°06' W 048°30'0 0.1
2018-Apr-09 20:27S 01°06' W 048°30'0 0.0
2018-Apr-09 19:54S 01°06' W 048°30'0 0.0
2018-Apr-09 19:30S 01°06' W 048°30'0 0.0
2018-Apr-09 19:00S 01°06' W 048°30'0 0.0
2018-Apr-09 18:30S 01°06' W 048°30'0 0.0
2018-Apr-09 18:00S 01°06' W 048°30'0 0.0
2018-Apr-09 17:30S 01°06' W 048°30'0 0.3
2018-Apr-09 17:00S 01°06' W 048°30'0 0.2
2018-Apr-09 16:30S 01°06' W 048°30'0 0.6
2018-Apr-09 16:00S 01°06' W 048°29'0 0.1
2018-Apr-09 15:30S 01°06' W 048°29'0 0.0
2018-Apr-09 15:00S 01°06' W 048°29'0 0.0
2018-Apr-09 14:30S 01°06' W 048°29'0 0.0
2018-Apr-09 14:00S 01°06' W 048°29'0 0.1
2018-Apr-09 13:29S 01°06' W 048°29'0 0.1
2018-Apr-09 13:00S 01°06' W 048°29'0 0.1
2018-Apr-09 12:26S 01°06' W 048°30'0 0.0
2018-Apr-09 11:58S 01°06' W 048°30'0 0.2
2018-Apr-09 11:30S 01°06' W 048°30'0 0.2
2018-Apr-09 11:00S 01°06' W 048°30'0 0.0
2018-Apr-09 10:30S 01°06' W 048°30'0 0.1
2018-Apr-09 09:57S 01°06' W 048°30'0 0.1
2018-Apr-09 09:29S 01°06' W 048°30'0 0.0
2018-Apr-09 09:00S 01°06' W 048°30'0 0.0
2018-Apr-09 08:30S 01°06' W 048°30'0 0.0
2018-Apr-09 08:00S 01°06' W 048°30'0 0.0
2018-Apr-09 07:30S 01°06' W 048°30'0 0.0
2018-Apr-09 07:00S 01°06' W 048°30'0 0.0
2018-Apr-09 06:30S 01°06' W 048°30'0 0.0
2018-Apr-09 05:58S 01°06' W 048°30'0 0.0
2018-Apr-09 05:30S 01°06' W 048°30'0 0.3
2018-Apr-09 05:01S 01°06' W 048°30'0 0.2
2018-Apr-09 04:30S 01°06' W 048°29'0 0.0
2018-Apr-09 03:59S 01°06' W 048°29'0 0.0
2018-Apr-09 03:30S 01°06' W 048°29'0 0.0
2018-Apr-09 03:00S 01°06' W 048°29'0 0.0
2018-Apr-09 02:19S 01°06' W 048°29'0 0.0
2018-Apr-09 01:59S 01°06' W 048°29'0 0.0
2018-Apr-09 01:30S 01°06' W 048°29'0 0.0
2018-Apr-09 00:59S 01°06' W 048°29'0 0.0
2018-Apr-09 00:30S 01°06' W 048°29'0 0.0
2018-Apr-08 23:57S 01°06' W 048°29'0 0.1
2018-Apr-08 23:30S 01°06' W 048°29'0 0.1
2018-Apr-08 23:00S 01°06' W 048°30'0 0.2
2018-Apr-08 22:30S 01°06' W 048°30'0 0.1
2018-Apr-08 22:00S 01°06' W 048°30'0 0.2
2018-Apr-08 21:30S 01°06' W 048°30'0 0.1
2018-Apr-08 21:00S 01°06' W 048°30'0 0.0
2018-Apr-08 20:30S 01°06' W 048°30'0 0.0
2018-Apr-08 20:00S 01°06' W 048°30'0 0.0
2018-Apr-08 19:30S 01°06' W 048°30'0 0.0
2018-Apr-08 19:00S 01°06' W 048°30'0 0.0
2018-Apr-08 18:30S 01°06' W 048°30'0 0.0
2018-Apr-08 17:58S 01°06' W 048°30'0 0.0
2018-Apr-08 17:30S 01°06' W 048°30'0 0.1
2018-Apr-08 17:00S 01°06' W 048°30'0 0.0
2018-Apr-08 16:27S 01°06' W 048°30'0 0.2
2018-Apr-08 16:00S 01°06' W 048°29'0 0.2
2018-Apr-08 15:30S 01°06' W 048°29'0 0.1
2018-Apr-08 14:57S 01°06' W 048°29'0 0.0
2018-Apr-08 14:30S 01°06' W 048°29'0 0.0
2018-Apr-08 14:01S 01°06' W 048°29'0 0.0
2018-Apr-08 13:31S 01°06' W 048°29'0 0.1
2018-Apr-08 13:00S 01°06' W 048°29'0 0.0
2018-Apr-08 12:30S 01°06' W 048°29'0 0.0
2018-Apr-08 11:55S 01°06' W 048°29'0 0.0
2018-Apr-08 11:30S 01°06' W 048°29'0 0.0
2018-Apr-08 11:00S 01°06' W 048°29'0 0.1
2018-Apr-08 10:30S 01°06' W 048°30'0 0.1
2018-Apr-08 09:59S 01°06' W 048°30'0 0.2
2018-Apr-08 09:28S 01°06' W 048°30'0 0.1
2018-Apr-08 09:00S 01°06' W 048°30'0 0.1
2018-Apr-08 08:30S 01°06' W 048°30'0 0.0
2018-Apr-08 08:00S 01°06' W 048°30'0 0.0
2018-Apr-08 07:30S 01°06' W 048°30'0 0.0
2018-Apr-08 07:00S 01°06' W 048°30'0 0.0
2018-Apr-08 06:30S 01°06' W 048°30'0 0.0
2018-Apr-08 06:00S 01°06' W 048°30'0 0.0
2018-Apr-08 05:30S 01°06' W 048°30'0 0.0
2018-Apr-08 05:00S 01°06' W 048°30'0 0.2
2018-Apr-08 04:30S 01°06' W 048°30'0 0.2
2018-Apr-08 04:00S 01°06' W 048°30'0 0.1
2018-Apr-08 03:30S 01°06' W 048°29'0 0.0
2018-Apr-08 03:00S 01°06' W 048°29'0 0.0
2018-Apr-08 02:30S 01°06' W 048°29'0 0.0
2018-Apr-08 01:59S 01°06' W 048°29'0 0.0
2018-Apr-08 01:30S 01°06' W 048°29'0 0.0
2018-Apr-08 01:00S 01°06' W 048°29'0 0.0
2018-Apr-08 00:30S 01°06' W 048°29'0 0.0
2018-Apr-08 00:00S 01°06' W 048°29'0 0.0
2018-Apr-07 23:30S 01°06' W 048°29'0 0.0
2018-Apr-07 23:00S 01°06' W 048°29'0 0.0
2018-Apr-07 22:29S 01°06' W 048°29'0 0.0
2018-Apr-07 22:00S 01°06' W 048°29'0 0.1
2018-Apr-07 21:30S 01°06' W 048°29'0 0.2
2018-Apr-07 21:00S 01°06' W 048°29'0 0.2
2018-Apr-07 20:30S 01°06' W 048°29'0 0.1
2018-Apr-07 19:59S 01°06' W 048°29'0 0.1
2018-Apr-07 19:30S 01°06' W 048°29'0 0.0
2018-Apr-07 19:00S 01°06' W 048°29'0 0.0
2018-Apr-07 18:30S 01°06' W 048°29'0 0.0
2018-Apr-07 18:00S 01°06' W 048°30'0 0.0
2018-Apr-07 17:30S 01°06' W 048°29'0 0.1
2018-Apr-07 17:01S 01°06' W 048°29'0 0.1
2018-Apr-07 16:30S 01°06' W 048°29'0 0.0
2018-Apr-07 16:00S 01°06' W 048°29'0 0.1
2018-Apr-07 15:30S 01°06' W 048°29'0 0.1
2018-Apr-07 15:00S 01°06' W 048°29'0 0.1
2018-Apr-07 14:30S 01°06' W 048°29'0 0.2
2018-Apr-07 14:00S 01°06' W 048°29'0 0.1
2018-Apr-07 13:24S 01°06' W 048°29'0 0.1
2018-Apr-07 12:59S 01°06' W 048°29'0 0.0
2018-Apr-07 12:30S 01°06' W 048°29'0 0.0
2018-Apr-07 12:00S 01°06' W 048°29'0 0.0
2018-Apr-07 11:30S 01°06' W 048°29'0 0.2
2018-Apr-07 11:00S 01°06' W 048°29'4 7.1
2018-Apr-07 10:30S 01°03' W 048°28'4 8.2
2018-Apr-07 10:00S 00°59' W 048°27'5 9.5
2018-Apr-07 09:30S 00°54' W 048°28'510.1
2018-Apr-07 09:01S 00°49' W 048°29'5 9.6
2018-Apr-07 08:31S 00°45' W 048°26'510.1
2018-Apr-07 08:00S 00°41' W 048°24'510.8
2018-Apr-07 07:31S 00°36' W 048°22'510.5
2018-Apr-07 07:00S 00°32' W 048°18'511.0
2018-Apr-07 06:30S 00°28' W 048°15'  
Track history (hours):
 
Tides and Currents Weather Stations Pressure Air Temp Water Temp Dewpoint Dewpoint Depression Visibility Wind Speed Wind Dir Waves Ship Positions

Sanko Dynasty

Last reported at 2018-Apr-16 03:14 UTC. Time now 2018-May-24 07:44 UTC.
Position N 00°03' W 047°23'.
Warning: this ship's position is 38 days out of date.

Length 240 m; draft 1.04 m.

Type: Tanker. MMSI: 538001883.

Date/timePositionNaut miles runAvg speedWind from/ knotsBaromVisibWave heightAir tempDewpointWater temp
2018-Apr-16 03:14N 00°03' W 047°23'410.9
2018-Apr-16 02:50N 00°02' W 047°26'411.2
2018-Apr-16 02:30S 00°00' W 047°30'611.3
2018-Apr-16 02:00S 00°03' W 047°35'610.5
2018-Apr-16 01:24S 00°05' W 047°41'4 9.6
2018-Apr-16 01:00S 00°07' W 047°44'6 9.0
2018-Apr-16 00:19S 00°12' W 047°48'3 8.7
2018-Apr-15 23:57S 00°13' W 047°51'3 7.4
2018-Apr-15 23:30S 00°15' W 047°54'4 7.3
2018-Apr-15 23:01S 00°17' W 047°57'2 3.3
2018-Apr-15 22:30S 00°18' W 047°58'2 4.4
2018-Apr-15 21:59S 00°19' W 048°00'3 6.2
2018-Apr-15 21:30S 00°20' W 048°03'3 6.9
2018-Apr-15 21:00S 00°21' W 048°06'4 7.2
2018-Apr-15 20:30S 00°23' W 048°09'44 7.7
2018-Apr-15 14:47S 01°03' W 048°28'2 7.4
2018-Apr-15 14:28S 01°05' W 048°30'3 7.2
2018-Apr-15 14:00S 01°07' W 048°32'3 6.3
2018-Apr-15 13:29S 01°10' W 048°33'2 4.2
2018-Apr-15 13:00S 01°12' W 048°34'3 5.6
2018-Apr-15 12:30S 01°14' W 048°35'3 6.6
2018-Apr-15 12:00S 01°17' W 048°37'4 8.3
2018-Apr-15 11:30S 01°20' W 048°40'4 8.7
2018-Apr-15 11:00S 01°24' W 048°42'5 9.6
2018-Apr-15 10:30S 01°29' W 048°43'1 2.4
2018-Apr-15 10:01S 01°30' W 048°44'0 0.0
2018-Apr-15 09:30S 01°30' W 048°44'0 0.0
2018-Apr-15 09:00S 01°30' W 048°44'0 0.0
2018-Apr-15 08:24S 01°30' W 048°44'0 0.0
2018-Apr-15 08:00S 01°30' W 048°44'0 0.0
2018-Apr-15 07:19S 01°30' W 048°44'0 0.0
2018-Apr-15 06:18S 01°30' W 048°44'0 0.0
2018-Apr-15 02:33S 01°30' W 048°44'0 0.0
2018-Apr-15 02:21S 01°30' W 048°44'0 0.0
2018-Apr-15 01:57S 01°30' W 048°44'0 0.0
2018-Apr-15 01:28S 01°30' W 048°44'0 0.0
2018-Apr-15 00:57S 01°30' W 048°44'0 0.0
2018-Apr-15 00:28S 01°30' W 048°44'0 0.0
2018-Apr-14 23:57S 01°30' W 048°44'0 0.0
2018-Apr-14 23:27S 01°30' W 048°44'0 0.0
2018-Apr-14 22:57S 01°30' W 048°44'0 0.0
2018-Apr-14 22:27S 01°30' W 048°44'0 0.0
2018-Apr-14 22:00S 01°30' W 048°44'0 0.0
2018-Apr-14 21:30S 01°30' W 048°44'0 0.0
2018-Apr-14 20:57S 01°30' W 048°44'0 0.0
2018-Apr-14 01:03S 01°30' W 048°44'0 0.0
2018-Apr-14 01:00S 01°30' W 048°44'0 0.0
2018-Apr-14 00:30S 01°30' W 048°44'0 0.0
2018-Apr-13 23:57S 01°30' W 048°44'0 0.0
2018-Apr-13 23:27S 01°30' W 048°44'0 0.0
2018-Apr-13 23:00S 01°30' W 048°44'0 0.0
2018-Apr-13 22:27S 01°30' W 048°44'0 0.0
2018-Apr-13 22:00S 01°30' W 048°44'0 0.0
2018-Apr-13 21:27S 01°30' W 048°44'0 0.0
2018-Apr-13 20:57S 01°30' W 048°44'0 0.0
2018-Apr-13 20:27S 01°30' W 048°44'0 0.0
2018-Apr-13 19:57S 01°30' W 048°44'0 0.0
2018-Apr-13 19:27S 01°30' W 048°44'0 0.0
2018-Apr-13 18:57S 01°30' W 048°44'0 0.0
2018-Apr-13 18:27S 01°30' W 048°44'0 0.0
2018-Apr-13 17:57S 01°30' W 048°44'0 0.0
2018-Apr-13 17:27S 01°30' W 048°44'0 0.0
2018-Apr-13 16:57S 01°30' W 048°44'0 0.0
2018-Apr-13 16:21S 01°30' W 048°44'0 0.0
2018-Apr-13 15:57S 01°30' W 048°44'0 0.0
2018-Apr-13 15:27S 01°30' W 048°44'0 0.0
2018-Apr-13 15:00S 01°30' W 048°44'0 0.0
2018-Apr-13 14:27S 01°30' W 048°44'0 0.0
2018-Apr-13 13:57S 01°30' W 048°44'0 0.0
2018-Apr-13 13:27S 01°30' W 048°44'0 0.0
2018-Apr-13 12:57S 01°30' W 048°44'0 0.0
2018-Apr-13 12:27S 01°30' W 048°44'0 0.0
2018-Apr-13 11:57S 01°30' W 048°44'0 0.0
2018-Apr-13 11:27S 01°30' W 048°44'0 0.0
2018-Apr-13 10:57S 01°30' W 048°44'0 0.0
2018-Apr-13 10:27S 01°30' W 048°44'0 0.0
2018-Apr-13 09:57S 01°30' W 048°44'0 0.0
2018-Apr-13 09:27S 01°30' W 048°44'0 0.0
2018-Apr-13 08:57S 01°30' W 048°44'0 0.0
2018-Apr-13 08:27S 01°30' W 048°44'0 0.0
2018-Apr-13 08:00S 01°30' W 048°44'0 0.0
2018-Apr-13 07:28S 01°30' W 048°44'0 0.0
2018-Apr-13 06:57S 01°30' W 048°44'0 0.0
2018-Apr-13 06:27S 01°30' W 048°44'0 0.0
2018-Apr-13 05:57S 01°30' W 048°44'0 0.0
2018-Apr-13 05:27S 01°30' W 048°44'0 0.0
2018-Apr-13 04:57S 01°30' W 048°44'0 0.0
2018-Apr-13 04:30S 01°30' W 048°44'0 0.0
2018-Apr-13 04:00S 01°30' W 048°44'0 0.0
2018-Apr-13 03:30S 01°30' W 048°44'0 0.0
2018-Apr-13 02:57S 01°30' W 048°44'0 0.0
2018-Apr-13 02:27S 01°30' W 048°44'0 0.0
2018-Apr-13 01:57S 01°30' W 048°44'0 0.0
2018-Apr-13 01:27S 01°30' W 048°44'0 0.0
2018-Apr-13 01:00S 01°30' W 048°44'0 0.0
2018-Apr-13 00:30S 01°30' W 048°44'0 0.0
2018-Apr-12 23:57S 01°30' W 048°44'0 0.0
2018-Apr-12 23:30S 01°30' W 048°44'0 0.0
2018-Apr-12 23:00S 01°30' W 048°44'0 0.0
2018-Apr-12 22:30S 01°30' W 048°44'0 0.0
2018-Apr-12 21:57S 01°30' W 048°44'0 0.0
2018-Apr-12 21:27S 01°30' W 048°44'0 0.0
2018-Apr-12 20:57S 01°30' W 048°44'0 0.0
2018-Apr-12 11:57S 01°30' W 048°44'0 0.0
2018-Apr-12 11:21S 01°30' W 048°44'0 0.0
2018-Apr-12 10:57S 01°30' W 048°44'0 0.0
2018-Apr-12 10:27S 01°30' W 048°44'0 0.0
2018-Apr-12 09:58S 01°30' W 048°44'0 0.0
2018-Apr-12 09:27S 01°30' W 048°44'0 0.0
2018-Apr-12 08:59S 01°30' W 048°44'0 0.0
2018-Apr-12 08:30S 01°30' W 048°44'0 0.0
2018-Apr-12 08:01S 01°30' W 048°44'0 0.0
2018-Apr-12 07:29S 01°30' W 048°44'0 0.0
2018-Apr-12 06:59S 01°30' W 048°44'0 0.0
2018-Apr-12 06:29S 01°30' W 048°44'0 0.0
2018-Apr-12 05:57S 01°30' W 048°44'0 0.0
2018-Apr-12 05:27S 01°30' W 048°44'0 0.0
2018-Apr-12 04:57S 01°30' W 048°44'0 0.0
2018-Apr-12 04:27S 01°30' W 048°44'0 0.0
2018-Apr-12 03:57S 01°30' W 048°44'0 0.0
2018-Apr-12 03:27S 01°30' W 048°44'0 0.0
2018-Apr-12 02:57S 01°30' W 048°44'0 0.0
2018-Apr-12 02:27S 01°30' W 048°44'0 0.0
2018-Apr-12 01:57S 01°30' W 048°44'0 0.0
2018-Apr-12 01:27S 01°30' W 048°44'0 0.0
2018-Apr-12 00:57S 01°30' W 048°44'0 0.0
2018-Apr-12 00:27S 01°30' W 048°44'0 0.0
2018-Apr-11 23:57S 01°30' W 048°44'0 0.0
2018-Apr-11 23:27S 01°30' W 048°44'0 0.0
2018-Apr-11 22:51S 01°30' W 048°44'0 0.0
2018-Apr-11 22:27S 01°30' W 048°44'0 0.0
2018-Apr-11 21:57S 01°30' W 048°44'0 0.0
2018-Apr-11 21:27S 01°30' W 048°44'0 0.0
2018-Apr-11 20:57S 01°30' W 048°44'0 0.0
2018-Apr-11 20:27S 01°30' W 048°44'0 0.0
2018-Apr-11 19:57S 01°30' W 048°44'0 0.0
2018-Apr-11 19:27S 01°30' W 048°44'0 0.0
2018-Apr-11 18:57S 01°30' W 048°44'0 0.0
2018-Apr-11 18:30S 01°30' W 048°44'0 0.0
2018-Apr-11 18:00S 01°30' W 048°44'0 0.0
2018-Apr-11 17:30S 01°30' W 048°44'0 0.0
2018-Apr-11 17:00S 01°30' W 048°44'0 0.0
2018-Apr-11 16:30S 01°30' W 048°44'0 0.0
2018-Apr-11 15:54S 01°30' W 048°44'0 0.0
2018-Apr-11 15:30S 01°30' W 048°44'0 0.0
2018-Apr-11 15:00S 01°30' W 048°44'0 0.0
2018-Apr-11 14:30S 01°30' W 048°44'0 0.0
2018-Apr-11 14:00S 01°30' W 048°44'0 0.0
2018-Apr-11 13:30S 01°30' W 048°44'0 0.0
2018-Apr-11 13:00S 01°30' W 048°44'0 0.0
2018-Apr-11 12:30S 01°30' W 048°44'0 0.0
2018-Apr-11 12:00S 01°30' W 048°44'0 0.0
2018-Apr-11 11:24S 01°30' W 048°44'0 0.0
2018-Apr-11 11:00S 01°30' W 048°44'0 0.0
2018-Apr-11 10:30S 01°30' W 048°44'0 0.0
2018-Apr-11 10:00S 01°30' W 048°44'0 0.0
2018-Apr-11 09:18S 01°30' W 048°44'0 0.0
2018-Apr-11 09:00S 01°30' W 048°44'0 0.0
2018-Apr-11 08:30S 01°30' W 048°44'0 0.0
2018-Apr-11 08:00S 01°30' W 048°44'0 0.0
2018-Apr-11 07:27S 01°30' W 048°44'0 0.0
2018-Apr-11 06:57S 01°30' W 048°44'0 0.0
2018-Apr-11 06:21S 01°30' W 048°44'0 0.0
2018-Apr-11 05:58S 01°30' W 048°44'0 0.0
2018-Apr-11 05:15S 01°30' W 048°44'0 0.0
2018-Apr-11 04:57S 01°30' W 048°44'0 0.0
2018-Apr-11 04:28S 01°30' W 048°44'0 0.0
2018-Apr-11 03:57S 01°30' W 048°44'0 0.0
2018-Apr-11 03:27S 01°30' W 048°44'0 0.0
2018-Apr-11 03:00S 01°30' W 048°44'0 0.0
2018-Apr-11 02:30S 01°30' W 048°44'0 0.0
2018-Apr-11 02:00S 01°30' W 048°44'0 0.0
2018-Apr-11 01:30S 01°30' W 048°44'0 0.0
2018-Apr-11 01:00S 01°30' W 048°44'0 0.0
2018-Apr-11 00:30S 01°30' W 048°44'0 0.0
2018-Apr-11 00:00S 01°30' W 048°44'0 0.0
2018-Apr-10 23:30S 01°30' W 048°44'0 0.0
2018-Apr-10 23:00S 01°30' W 048°44'0 0.0
2018-Apr-10 22:30S 01°30' W 048°44'0 0.0
2018-Apr-10 22:00S 01°30' W 048°44'0 0.0
2018-Apr-10 21:30S 01°30' W 048°44'0 0.0
2018-Apr-10 21:00S 01°30' W 048°44'0 0.0
2018-Apr-10 20:30S 01°30' W 048°44'0 0.5
2018-Apr-10 20:00S 01°30' W 048°44'2 3.7
2018-Apr-10 19:30S 01°28' W 048°44'510.3
2018-Apr-10 19:00S 01°23' W 048°42'510.2
2018-Apr-10 18:30S 01°19' W 048°39'5 9.8
2018-Apr-10 18:00S 01°15' W 048°36'5 9.1
2018-Apr-10 17:30S 01°11' W 048°33'3 6.3
2018-Apr-10 17:00S 01°09' W 048°31'2 4.6
2018-Apr-10 16:30S 01°07' W 048°30'1 1.7
2018-Apr-10 16:00S 01°06' W 048°29'0 0.0
2018-Apr-10 15:27S 01°06' W 048°29'0 0.1
2018-Apr-10 15:00S 01°06' W 048°29'0 0.1
2018-Apr-10 14:30S 01°06' W 048°29'0 0.2
2018-Apr-10 14:00S 01°06' W 048°29'0 0.2
2018-Apr-10 13:30S 01°06' W 048°30'0 0.3
2018-Apr-10 13:00S 01°06' W 048°30'0 0.1
2018-Apr-10 12:30S 01°06' W 048°30'0 0.1
2018-Apr-10 12:00S 01°06' W 048°30'0 0.1
2018-Apr-10 11:30S 01°06' W 048°30'0 0.0
2018-Apr-10 10:59S 01°06' W 048°30'0 0.0
2018-Apr-10 10:30S 01°06' W 048°30'0 0.0
2018-Apr-10 10:01S 01°06' W 048°30'0 0.0
2018-Apr-10 09:30S 01°06' W 048°30'0 0.1
2018-Apr-10 09:00S 01°06' W 048°30'0 0.0
2018-Apr-10 08:30S 01°06' W 048°30'0 0.1
2018-Apr-10 08:00S 01°06' W 048°30'0 0.1
2018-Apr-10 07:30S 01°06' W 048°30'0 0.0
2018-Apr-10 07:00S 01°06' W 048°30'0 0.2
2018-Apr-10 06:31S 01°06' W 048°30'0 0.2
2018-Apr-10 06:01S 01°06' W 048°29'0 0.0
2018-Apr-10 05:31S 01°06' W 048°29'0 0.0
2018-Apr-10 05:01S 01°06' W 048°29'0 0.0
2018-Apr-10 04:30S 01°06' W 048°29'0 0.0
2018-Apr-10 04:00S 01°06' W 048°29'0 0.0
2018-Apr-10 03:30S 01°06' W 048°29'0 0.0
2018-Apr-10 03:00S 01°06' W 048°29'0 0.0
2018-Apr-10 02:30S 01°06' W 048°29'0 0.0
2018-Apr-10 01:58S 01°06' W 048°29'0 0.0
2018-Apr-10 01:30S 01°06' W 048°29'0 0.1
2018-Apr-10 00:59S 01°06' W 048°29'0 0.0
2018-Apr-10 00:29S 01°06' W 048°30'0 0.2
2018-Apr-10 00:00S 01°06' W 048°30'0 0.2
2018-Apr-09 23:30S 01°06' W 048°30'0 0.2
2018-Apr-09 23:00S 01°06' W 048°30'0 0.0
2018-Apr-09 22:30S 01°06' W 048°30'0 0.0
2018-Apr-09 22:00S 01°06' W 048°30'0 0.1
2018-Apr-09 21:30S 01°06' W 048°30'0 0.0
2018-Apr-09 20:59S 01°06' W 048°30'0 0.1
2018-Apr-09 20:27S 01°06' W 048°30'0 0.0
2018-Apr-09 19:54S 01°06' W 048°30'0 0.0
2018-Apr-09 19:30S 01°06' W 048°30'0 0.0
2018-Apr-09 19:00S 01°06' W 048°30'0 0.0
2018-Apr-09 18:30S 01°06' W 048°30'0 0.0
2018-Apr-09 18:00S 01°06' W 048°30'0 0.0
2018-Apr-09 17:30S 01°06' W 048°30'0 0.3
2018-Apr-09 17:00S 01°06' W 048°30'0 0.2
2018-Apr-09 16:30S 01°06' W 048°30'0 0.6
2018-Apr-09 16:00S 01°06' W 048°29'0 0.1
2018-Apr-09 15:30S 01°06' W 048°29'0 0.0
2018-Apr-09 15:00S 01°06' W 048°29'0 0.0
2018-Apr-09 14:30S 01°06' W 048°29'0 0.0
2018-Apr-09 14:00S 01°06' W 048°29'0 0.1
2018-Apr-09 13:29S 01°06' W 048°29'0 0.1
2018-Apr-09 13:00S 01°06' W 048°29'0 0.1
2018-Apr-09 12:26S 01°06' W 048°30'0 0.0
2018-Apr-09 11:58S 01°06' W 048°30'0 0.2
2018-Apr-09 11:30S 01°06' W 048°30'0 0.2
2018-Apr-09 11:00S 01°06' W 048°30'0 0.0
2018-Apr-09 10:30S 01°06' W 048°30'0 0.1
2018-Apr-09 09:57S 01°06' W 048°30'0 0.1
2018-Apr-09 09:29S 01°06' W 048°30'0 0.0
2018-Apr-09 09:00S 01°06' W 048°30'0 0.0
2018-Apr-09 08:30S 01°06' W 048°30'0 0.0
2018-Apr-09 08:00S 01°06' W 048°30'0 0.0
2018-Apr-09 07:30S 01°06' W 048°30'0 0.0
2018-Apr-09 07:00S 01°06' W 048°30'0 0.0
2018-Apr-09 06:30S 01°06' W 048°30'0 0.0
2018-Apr-09 05:58S 01°06' W 048°30'0 0.0
2018-Apr-09 05:30S 01°06' W 048°30'0 0.3
2018-Apr-09 05:01S 01°06' W 048°30'0 0.2
2018-Apr-09 04:30S 01°06' W 048°29'0 0.0
2018-Apr-09 03:59S 01°06' W 048°29'0 0.0
2018-Apr-09 03:30S 01°06' W 048°29'0 0.0
2018-Apr-09 03:00S 01°06' W 048°29'0 0.0
2018-Apr-09 02:19S 01°06' W 048°29'0 0.0
2018-Apr-09 01:59S 01°06' W 048°29'0 0.0
2018-Apr-09 01:30S 01°06' W 048°29'0 0.0
2018-Apr-09 00:59S 01°06' W 048°29'0 0.0
2018-Apr-09 00:30S 01°06' W 048°29'0 0.0
2018-Apr-08 23:57S 01°06' W 048°29'0 0.1
2018-Apr-08 23:30S 01°06' W 048°29'0 0.1
2018-Apr-08 23:00S 01°06' W 048°30'0 0.2
2018-Apr-08 22:30S 01°06' W 048°30'0 0.1
2018-Apr-08 22:00S 01°06' W 048°30'0 0.2
2018-Apr-08 21:30S 01°06' W 048°30'0 0.1
2018-Apr-08 21:00S 01°06' W 048°30'0 0.0
2018-Apr-08 20:30S 01°06' W 048°30'0 0.0
2018-Apr-08 20:00S 01°06' W 048°30'0 0.0
2018-Apr-08 19:30S 01°06' W 048°30'0 0.0
2018-Apr-08 19:00S 01°06' W 048°30'0 0.0
2018-Apr-08 18:30S 01°06' W 048°30'0 0.0
2018-Apr-08 17:58S 01°06' W 048°30'0 0.0
2018-Apr-08 17:30S 01°06' W 048°30'0 0.1
2018-Apr-08 17:00S 01°06' W 048°30'0 0.0
2018-Apr-08 16:27S 01°06' W 048°30'0 0.2
2018-Apr-08 16:00S 01°06' W 048°29'0 0.2
2018-Apr-08 15:30S 01°06' W 048°29'0 0.1
2018-Apr-08 14:57S 01°06' W 048°29'0 0.0
2018-Apr-08 14:30S 01°06' W 048°29'0 0.0
2018-Apr-08 14:01S 01°06' W 048°29'0 0.0
2018-Apr-08 13:31S 01°06' W 048°29'0 0.1
2018-Apr-08 13:00S 01°06' W 048°29'0 0.0
2018-Apr-08 12:30S 01°06' W 048°29'0 0.0
2018-Apr-08 11:55S 01°06' W 048°29'0 0.0
2018-Apr-08 11:30S 01°06' W 048°29'0 0.0
2018-Apr-08 11:00S 01°06' W 048°29'0 0.1
2018-Apr-08 10:30S 01°06' W 048°30'0 0.1
2018-Apr-08 09:59S 01°06' W 048°30'0 0.2
2018-Apr-08 09:28S 01°06' W 048°30'0 0.1
2018-Apr-08 09:00S 01°06' W 048°30'0 0.1
2018-Apr-08 08:30S 01°06' W 048°30'0 0.0
2018-Apr-08 08:00S 01°06' W 048°30'0 0.0
2018-Apr-08 07:30S 01°06' W 048°30'0 0.0
2018-Apr-08 07:00S 01°06' W 048°30'0 0.0
2018-Apr-08 06:30S 01°06' W 048°30'0 0.0
2018-Apr-08 06:00S 01°06' W 048°30'0 0.0
2018-Apr-08 05:30S 01°06' W 048°30'0 0.0
2018-Apr-08 05:00S 01°06' W 048°30'0 0.2
2018-Apr-08 04:30S 01°06' W 048°30'0 0.2
2018-Apr-08 04:00S 01°06' W 048°30'0 0.1
2018-Apr-08 03:30S 01°06' W 048°29'0 0.0
2018-Apr-08 03:00S 01°06' W 048°29'0 0.0
2018-Apr-08 02:30S 01°06' W 048°29'0 0.0
2018-Apr-08 01:59S 01°06' W 048°29'0 0.0
2018-Apr-08 01:30S 01°06' W 048°29'0 0.0
2018-Apr-08 01:00S 01°06' W 048°29'0 0.0
2018-Apr-08 00:30S 01°06' W 048°29'0 0.0
2018-Apr-08 00:00S 01°06' W 048°29'0 0.0
2018-Apr-07 23:30S 01°06' W 048°29'0 0.0
2018-Apr-07 23:00S 01°06' W 048°29'0 0.0
2018-Apr-07 22:29S 01°06' W 048°29'0 0.0
2018-Apr-07 22:00S 01°06' W 048°29'0 0.1
2018-Apr-07 21:30S 01°06' W 048°29'0 0.2
2018-Apr-07 21:00S 01°06' W 048°29'0 0.2
2018-Apr-07 20:30S 01°06' W 048°29'0 0.1
2018-Apr-07 19:59S 01°06' W 048°29'0 0.1
2018-Apr-07 19:30S 01°06' W 048°29'0 0.0
2018-Apr-07 19:00S 01°06' W 048°29'0 0.0
2018-Apr-07 18:30S 01°06' W 048°29'0 0.0
2018-Apr-07 18:00S 01°06' W 048°30'0 0.0
2018-Apr-07 17:30S 01°06' W 048°29'0 0.1
2018-Apr-07 17:01S 01°06' W 048°29'0 0.1
2018-Apr-07 16:30S 01°06' W 048°29'0 0.0
2018-Apr-07 16:00S 01°06' W 048°29'0 0.1
2018-Apr-07 15:30S 01°06' W 048°29'0 0.1
2018-Apr-07 15:00S 01°06' W 048°29'0 0.1
2018-Apr-07 14:30S 01°06' W 048°29'0 0.2
2018-Apr-07 14:00S 01°06' W 048°29'0 0.1
2018-Apr-07 13:24S 01°06' W 048°29'0 0.1
2018-Apr-07 12:59S 01°06' W 048°29'0 0.0
2018-Apr-07 12:30S 01°06' W 048°29'0 0.0
2018-Apr-07 12:00S 01°06' W 048°29'0 0.0
2018-Apr-07 11:30S 01°06' W 048°29'0 0.2
2018-Apr-07 11:00S 01°06' W 048°29'4 7.1
2018-Apr-07 10:30S 01°03' W 048°28'4 8.2
2018-Apr-07 10:00S 00°59' W 048°27'5 9.5
2018-Apr-07 09:30S 00°54' W 048°28'510.1
2018-Apr-07 09:01S 00°49' W 048°29'5 9.6
2018-Apr-07 08:31S 00°45' W 048°26'510.1
2018-Apr-07 08:00S 00°41' W 048°24'510.8
2018-Apr-07 07:31S 00°36' W 048°22'510.5
2018-Apr-07 07:00S 00°32' W 048°18'511.0
2018-Apr-07 06:30S 00°28' W 048°15'  

Dump ship's entire track history